createdAt,value
2022-09-28T00:01:25.818Z,98794.17
2022-09-28T00:03:59.989Z,98791.77
2022-09-28T00:06:30.883Z,98784.74
2022-09-28T00:08:59.328Z,98795.98
2022-09-28T00:11:29.314Z,98791.26
2022-09-28T00:14:02.517Z,98790.21
2022-09-28T00:16:34.982Z,98791.89
2022-09-28T00:19:05.167Z,98789.45
2022-09-28T00:21:37.185Z,98794.61
2022-09-28T00:24:15.061Z,98790.66
2022-09-28T00:26:52.314Z,98783.05
2022-09-28T00:29:29.576Z,98778.67
2022-09-28T00:32:17.738Z,98774.04
2022-09-28T00:34:46.202Z,98773.60
2022-09-28T00:37:16.031Z,98773.53
2022-09-28T00:39:44.915Z,98768.98
2022-09-28T00:42:16.365Z,98765.94
2022-09-28T00:44:51.301Z,98766.19
2022-09-28T00:47:46.810Z,98770.52
2022-09-28T00:50:18.925Z,98771.52
2022-09-28T00:53:11.907Z,98769.44
2022-09-28T00:55:49.855Z,98768.15
2022-09-28T00:58:30.291Z,98768.19
2022-09-28T01:01:00.188Z,98765.00
2022-09-28T01:03:29.830Z,98764.84
2022-09-28T01:06:00.670Z,98763.52
2022-09-28T01:08:31.961Z,98764.08
2022-09-28T01:11:01.099Z,98771.16
2022-09-28T01:13:31.762Z,98766.26
2022-09-28T01:16:14.844Z,98761.15
2022-09-28T01:19:22.177Z,98760.45
2022-09-28T01:22:21.205Z,98758.36
2022-09-28T01:25:00.873Z,98761.23
2022-09-28T01:27:34.413Z,98758.45
2022-09-28T01:30:08.219Z,98750.61
2022-09-28T01:33:12.800Z,98759.97
2022-09-28T01:36:00.155Z,98755.98
2022-09-28T01:38:46.743Z,98754.23
2022-09-28T01:41:18.114Z,98751.55
2022-09-28T01:43:54.934Z,98747.79
2022-09-28T01:46:44.944Z,98739.37
2022-09-28T01:49:58.880Z,98738.57
2022-09-28T01:52:36.559Z,98740.46
2022-09-28T01:55:21.353Z,98743.32
2022-09-28T01:57:54.014Z,98741.27
2022-09-28T02:00:25.217Z,98745.30
2022-09-28T02:03:02.360Z,98747.25
2022-09-28T02:05:55.048Z,98749.39
2022-09-28T02:08:44.596Z,98747.47
2022-09-28T02:11:19.634Z,98750.60
2022-09-28T02:14:05.792Z,98751.60
2022-09-28T02:16:40.426Z,98746.65
2022-09-28T02:19:16.762Z,98752.45
2022-09-28T02:22:08.851Z,98755.56
2022-09-28T02:24:59.067Z,98760.41
2022-09-28T02:27:58.052Z,98762.95
2022-09-28T02:30:26.729Z,98767.73
2022-09-28T02:33:02.161Z,98775.27
2022-09-28T02:35:30.785Z,98779.79
2022-09-28T02:37:59.328Z,98782.17
2022-09-28T02:40:34.348Z,98784.89
2022-09-28T02:43:13.301Z,98780.50
2022-09-28T02:46:13.065Z,98779.39
2022-09-28T02:49:30.250Z,98781.20
2022-09-28T02:52:29.567Z,98793.35
2022-09-28T02:55:18.959Z,98799.91
2022-09-28T02:58:21.687Z,98801.02
2022-09-28T03:01:43.325Z,98800.05
2022-09-28T03:04:24.301Z,98800.33
2022-09-28T03:07:32.980Z,98789.23
2022-09-28T03:10:19.756Z,98783.27
2022-09-28T03:12:49.603Z,98777.92
2022-09-28T03:15:30.893Z,98782.63
2022-09-28T03:18:00.118Z,98781.44
2022-09-28T03:20:30.692Z,98787.12
2022-09-28T03:25:47.525Z,98799.16
2022-09-28T03:28:16.392Z,98798.79
2022-09-28T03:30:44.703Z,98798.35
2022-09-28T03:33:13.188Z,98793.45
2022-09-28T03:35:41.684Z,98795.30
2022-09-28T03:38:10.103Z,98805.61
2022-09-28T03:40:39.339Z,98802.14
2022-09-28T03:43:07.946Z,98806.31
2022-09-28T03:45:36.404Z,98805.05
2022-09-28T03:48:04.938Z,98799.68
2022-09-28T03:50:35.268Z,98787.11
2022-09-28T03:53:04.845Z,98786.60
2022-09-28T03:55:33.356Z,98795.20
2022-09-28T03:58:01.815Z,98800.27
2022-09-28T04:00:31.205Z,98811.23
2022-09-28T04:02:59.776Z,98811.29
2022-09-28T04:05:29.210Z,98805.96
2022-09-28T04:07:58.125Z,98804.33
2022-09-28T04:10:26.728Z,98803.80
2022-09-28T04:12:57.355Z,98792.17
2022-09-28T04:15:26.463Z,98805.65
2022-09-28T04:17:55.053Z,98777.73
2022-09-28T04:21:09.103Z,98814.04
2022-09-28T04:23:44.745Z,98818.73
2022-09-28T04:26:25.360Z,98819.02
2022-09-28T04:29:12.860Z,98813.38
2022-09-28T04:31:47.182Z,98825.59
2022-09-28T04:34:23.408Z,98830.02
2022-09-28T04:36:51.862Z,98830.67
2022-09-28T04:39:20.617Z,98829.05
2022-09-28T04:41:57.260Z,98826.73
2022-09-28T04:44:25.682Z,98828.27
2022-09-28T04:47:04.206Z,98834.73
2022-09-28T04:49:35.504Z,98832.61
2022-09-28T04:52:17.841Z,98828.88
2022-09-28T04:54:48.700Z,98827.98
2022-09-28T04:57:17.939Z,98831.38
2022-09-28T04:59:46.447Z,98822.29
2022-09-28T05:02:15.398Z,98834.32
2022-09-28T05:05:02.352Z,98832.23
2022-09-28T05:07:46.078Z,98835.41
2022-09-28T05:10:14.957Z,98832.21
2022-09-28T05:12:43.488Z,98837.66
2022-09-28T05:15:12.411Z,98842.10
2022-09-28T05:17:40.917Z,98844.05
2022-09-28T05:20:21.951Z,98845.06
2022-09-28T05:22:50.381Z,98843.96
2022-09-28T05:25:19.561Z,98850.48
2022-09-28T05:28:43.170Z,98851.04
2022-09-28T05:31:37.216Z,98853.98
2022-09-28T05:34:20.492Z,98853.54
2022-09-28T05:36:49.372Z,98853.84
2022-09-28T05:39:19.007Z,98853.55
2022-09-28T05:41:47.542Z,98854.85
2022-09-28T05:44:16.207Z,98859.41
2022-09-28T05:46:44.939Z,98857.82
2022-09-28T05:49:13.968Z,98859.09
2022-09-28T05:51:42.687Z,98866.69
2022-09-28T05:54:11.413Z,98868.52
2022-09-28T05:56:42.944Z,98870.63
2022-09-28T05:59:12.265Z,98875.17
2022-09-28T06:01:40.888Z,98875.95
2022-09-28T06:04:11.310Z,98881.36
2022-09-28T06:06:40.388Z,98882.49
2022-09-28T06:09:09.035Z,98886.20
2022-09-28T06:11:46.828Z,98884.47
2022-09-28T06:14:24.264Z,98874.01
2022-09-28T06:16:52.847Z,98880.02
2022-09-28T06:19:21.633Z,98873.16
2022-09-28T06:22:30.931Z,98868.42
2022-09-28T06:25:07.025Z,98862.06
2022-09-28T06:27:36.276Z,98860.75
2022-09-28T06:30:05.658Z,98865.31
2022-09-28T06:32:34.201Z,98864.58
2022-09-28T06:35:02.646Z,98869.19
2022-09-28T06:37:33.253Z,98869.83
2022-09-28T06:40:03.283Z,98871.14
2022-09-28T06:42:32.200Z,98868.88
2022-09-28T06:45:26.687Z,98871.43
2022-09-28T06:48:23.782Z,98866.40
2022-09-28T06:50:52.405Z,98864.48
2022-09-28T06:53:29.693Z,98866.70
2022-09-28T06:56:02.651Z,98867.44
2022-09-28T06:58:32.440Z,98866.50
2022-09-28T07:01:02.186Z,98867.22
2022-09-28T07:03:35.839Z,98869.77
2022-09-28T07:06:04.545Z,98863.58
2022-09-28T07:09:04.871Z,98865.64
2022-09-28T07:11:46.766Z,98868.08
2022-09-28T07:14:48.006Z,98874.64
2022-09-28T07:17:17.418Z,98881.14
2022-09-28T07:19:45.972Z,98882.72
2022-09-28T07:22:18.926Z,98875.05
2022-09-28T07:24:49.047Z,98886.31
2022-09-28T07:27:37.397Z,98885.31
2022-09-28T07:30:17.985Z,98889.46
2022-09-28T07:33:07.981Z,98894.02
2022-09-28T07:35:55.770Z,98893.42
2022-09-28T07:38:30.996Z,98891.98
2022-09-28T07:41:11.706Z,98891.54
2022-09-28T07:43:45.125Z,98889.59
2022-09-28T07:46:13.608Z,98893.96
2022-09-28T07:49:11.481Z,98898.08
2022-09-28T07:52:28.943Z,98895.00
2022-09-28T07:56:07.330Z,98895.88
2022-09-28T07:58:43.810Z,98905.59
2022-09-28T08:01:55.983Z,98904.23
2022-09-28T08:04:25.547Z,98900.58
2022-09-28T08:06:53.887Z,98906.57
2022-09-28T08:09:22.299Z,98905.30
2022-09-28T08:12:59.139Z,98900.39
2022-09-28T08:15:52.025Z,98907.72
2022-09-28T08:18:27.750Z,98907.33
2022-09-28T08:21:14.940Z,98908.45
2022-09-28T08:23:43.313Z,98921.53
2022-09-28T08:26:15.516Z,98922.58
2022-09-28T08:28:47.026Z,98929.98
2022-09-28T08:31:36.424Z,98937.57
2022-09-28T08:34:46.292Z,98934.34
2022-09-28T08:38:14.415Z,98927.85
2022-09-28T08:41:17.822Z,98933.44
2022-09-28T08:44:49.979Z,98939.80
2022-09-28T08:48:04.674Z,98940.22
2022-09-28T08:50:57.242Z,98943.03
2022-09-28T08:53:46.022Z,98943.02
2022-09-28T08:56:40.225Z,98945.11
2022-09-28T08:59:22.643Z,98949.55
2022-09-28T09:02:04.128Z,98945.02
2022-09-28T09:04:34.756Z,98947.23
2022-09-28T09:07:42.628Z,98952.54
2022-09-28T09:10:50.970Z,98947.05
2022-09-28T09:14:27.722Z,98942.49
2022-09-28T09:17:29.730Z,98941.21
2022-09-28T09:20:51.854Z,98942.77
2022-09-28T09:23:57.010Z,98947.16
2022-09-28T09:26:40.344Z,98944.23
2022-09-28T09:29:50.339Z,98941.27
2022-09-28T09:32:56.130Z,98939.17
2022-09-28T09:35:52.636Z,98932.57
2022-09-28T09:38:43.470Z,98924.31
2022-09-28T09:41:52.819Z,98922.52
2022-09-28T09:46:14.838Z,98926.85
2022-09-28T09:49:46.049Z,98926.50
2022-09-28T09:55:14.746Z,98930.05
2022-09-28T09:58:10.098Z,98929.75
2022-09-28T10:00:51.790Z,98934.90
2022-09-28T10:03:34.920Z,98937.76
2022-09-28T10:06:28.233Z,98940.88
2022-09-28T10:09:11.157Z,98929.98
2022-09-28T10:11:52.238Z,98938.48
2022-09-28T10:14:27.590Z,98936.65
2022-09-28T10:17:13.814Z,98939.11
2022-09-28T10:20:00.776Z,98934.80
2022-09-28T10:23:02.262Z,98935.27
2022-09-28T10:25:36.610Z,98938.80
2022-09-28T10:28:16.983Z,98936.77
2022-09-28T10:30:45.778Z,98934.30
2022-09-28T10:33:35.475Z,98930.52
2022-09-28T10:36:07.564Z,98930.63
2022-09-28T10:38:36.467Z,98931.98
2022-09-28T10:41:13.738Z,98931.83
2022-09-28T10:44:19.316Z,98932.10
2022-09-28T10:47:10.051Z,98931.52
2022-09-28T10:49:47.298Z,98930.04
2022-09-28T10:52:40.470Z,98929.23
2022-09-28T10:55:33.674Z,98923.25
2022-09-28T10:58:48.954Z,98920.52
2022-09-28T11:01:33.161Z,98924.95
2022-09-28T11:04:08.146Z,98923.91
2022-09-28T11:06:41.126Z,98925.75
2022-09-28T11:09:31.940Z,98923.54
2022-09-28T11:12:07.200Z,98916.36
2022-09-28T11:14:42.729Z,98911.31
2022-09-28T11:17:29.872Z,98911.87
2022-09-28T11:20:27.812Z,98909.10
2022-09-28T11:23:18.187Z,98896.55
2022-09-28T11:26:06.053Z,98903.69
2022-09-28T11:28:38.377Z,98908.45
2022-09-28T11:31:14.347Z,98914.41
2022-09-28T11:34:17.056Z,98917.34
2022-09-28T11:37:31.385Z,98912.77
2022-09-28T11:40:29.699Z,98912.16
2022-09-28T11:43:19.163Z,98912.94
2022-09-28T11:46:18.916Z,98913.64
2022-09-28T11:49:05.298Z,98911.45
2022-09-28T11:51:37.643Z,98912.77
2022-09-28T11:54:22.631Z,98914.17
2022-09-28T11:56:53.965Z,98917.68
2022-09-28T11:59:50.253Z,98924.10
2022-09-28T12:02:38.274Z,98927.83
2022-09-28T12:05:52.178Z,98930.14
2022-09-28T12:08:32.226Z,98935.92
2022-09-28T12:11:22.136Z,98936.13
2022-09-28T12:14:41.024Z,98940.84
2022-09-28T12:17:11.852Z,98942.10
2022-09-28T12:19:51.461Z,98941.63
2022-09-28T12:23:08.068Z,98947.52
2022-09-28T12:26:06.527Z,98949.45
2022-09-28T12:29:13.244Z,98956.73
2022-09-28T12:32:01.107Z,98957.96
2022-09-28T12:34:29.671Z,98955.56
2022-09-28T12:37:16.840Z,98955.83
2022-09-28T12:39:57.952Z,98958.98
2022-09-28T12:42:55.977Z,98963.75
2022-09-28T12:45:53.112Z,98961.95
2022-09-28T12:51:54.701Z,98966.05
2022-09-28T12:54:39.044Z,98973.00
2022-09-28T12:57:26.210Z,98980.90
2022-09-28T13:00:00.923Z,98981.11
2022-09-28T13:03:03.088Z,98977.71
2022-09-28T13:06:17.293Z,98975.97
2022-09-28T13:09:10.131Z,98971.60
2022-09-28T13:12:13.938Z,98970.33
2022-09-28T13:15:10.033Z,98972.23
2022-09-28T13:17:53.612Z,98977.48
2022-09-28T13:20:41.975Z,98980.22
2022-09-28T13:23:40.512Z,98984.17
2022-09-28T13:26:23.921Z,98985.41
2022-09-28T13:28:57.046Z,98998.85
2022-09-28T13:31:33.043Z,99001.13
2022-09-28T13:34:04.693Z,99001.43
2022-09-28T13:36:37.841Z,99006.52
2022-09-28T13:39:37.911Z,99012.41
2022-09-28T13:42:09.409Z,99018.21
2022-09-28T13:45:12.065Z,99020.52
2022-09-28T13:47:52.582Z,99021.66
2022-09-28T13:50:48.106Z,99027.90
2022-09-28T13:53:54.474Z,99030.31
2022-09-28T13:56:45.045Z,99034.08
2022-09-28T13:59:28.138Z,99033.27
2022-09-28T14:02:22.643Z,99038.44
2022-09-28T14:05:02.209Z,99042.54
2022-09-28T14:07:36.598Z,99043.67
2022-09-28T14:10:08.017Z,99044.73
2022-09-28T14:12:36.206Z,99048.78
2022-09-28T14:15:30.033Z,99052.03
2022-09-28T14:18:25.912Z,99056.81
2022-09-28T14:21:03.039Z,99062.98
2022-09-28T14:24:03.526Z,99064.65
2022-09-28T14:26:47.207Z,99067.10
2022-09-28T14:29:28.619Z,99066.77
2022-09-28T14:32:20.887Z,99069.25
2022-09-28T14:34:59.996Z,99068.45
2022-09-28T14:37:54.861Z,99066.36
2022-09-28T14:40:50.426Z,99075.39
2022-09-28T14:43:34.533Z,99076.92
2022-09-28T14:46:27.401Z,99079.09
2022-09-28T14:49:17.661Z,99084.40
2022-09-28T14:51:51.750Z,99086.80
2022-09-28T14:54:26.693Z,99092.52
2022-09-28T14:56:57.620Z,99099.37
2022-09-28T14:59:36.229Z,99100.35
2022-09-28T15:02:10.788Z,99103.63
2022-09-28T15:04:50.808Z,99110.08
2022-09-28T15:07:42.417Z,99115.10
2022-09-28T15:10:33.867Z,99121.20
2022-09-28T15:13:06.369Z,99123.20
2022-09-28T15:15:39.021Z,99127.71
2022-09-28T15:18:16.802Z,99131.45
2022-09-28T15:20:51.695Z,99137.80
2022-09-28T15:23:44.438Z,99145.29
2022-09-28T15:26:34.403Z,99146.93
2022-09-28T15:29:05.690Z,99151.74
2022-09-28T15:31:36.512Z,99152.63
2022-09-28T15:34:23.246Z,99157.88
2022-09-28T15:36:56.536Z,99163.52
2022-09-28T15:39:34.192Z,99166.27
2022-09-28T15:42:04.097Z,99168.82
2022-09-28T15:44:37.207Z,99171.11
2022-09-28T15:47:16.095Z,99173.89
2022-09-28T15:49:57.340Z,99175.13
2022-09-28T15:52:36.679Z,99175.35
2022-09-28T15:55:17.734Z,99181.65
2022-09-28T15:57:50.431Z,99183.09
